Terminal Aerodrome Forecast
Issued by NWS

Home | Current Version | Previous Version | Text Only | Print | Product List | Glossary On
Versions: 1 2 3 4 5 6 7 8 9 10 11 12 13 14 15 16 17 18 19 20 21
000
FTUS45 KLKN 202322
TAFELY
TAF
KELY 202322Z 2100/2124 15014KT P6SM VCSH FEW030 BKN050 OVC070
      TEMPO 2100/2102 16016G25KT 2SM -SN BLSN BKN030
     FM210200 17020G30KT 2SM -SN BLSN OVC004
     FM210700 20008KT 3SM -SHSN BR OVC005
     FM211400 26008KT 6SM BR VCSH BKN010 OVC030
     FM212000 32006KT P6SM SCT030 OVC060=

USA.gov is the U.S. government's official web portal to all federal, state and local government web resources and services.